Time;durP1;ratioP1;P1;durP2;ratioP2;P2;SDS_P1;SDS_P2;PMS_P1;PMS_P2;Temp;Humidity;BMP_temperature;BMP_pressure;BME280_temperature;BME280_humidity;BME280_pressure;Samples;Min_cycle;Max_cycle;Signal;HPM_P1;HPM_P2
2023/07/29 06:03:24;;;;;;;10.00;3.40;;;;;;;20.99;73.60;98590.55;112293;1228;95165;-91
2023/07/29 06:05:52;;;;;;;6.20;3.70;;;;;;;20.99;73.56;98585.85;109008;1234;109421;-89
2023/07/29 06:08:21;;;;;;;6.70;3.90;;;;;;;21.01;73.44;98586.45;108638;1231;97715;-89
2023/07/29 06:10:49;;;;;;;7.30;3.50;;;;;;;21.06;73.73;98588.55;109445;1231;107691;-92
2023/07/29 06:13:18;;;;;;;7.50;3.40;;;;;;;21.15;73.68;98594.02;109874;1234;95224;-92
2023/07/29 06:15:47;;;;;;;6.40;2.90;;;;;;;21.21;73.73;98598.48;109626;1237;96484;-91
2023/07/29 06:18:14;;;;;;;5.80;3.30;;;;;;;21.23;73.53;98600.33;109058;1231;96646;-92
2023/07/29 06:20:41;;;;;;;7.00;3.70;;;;;;;21.27;73.31;98604.73;108889;1237;97710;-92
2023/07/29 06:23:08;;;;;;;7.00;3.50;;;;;;;21.31;73.08;98600.25;108943;1231;96662;-89
2023/07/29 06:25:35;;;;;;;5.30;3.40;;;;;;;21.33;73.26;98591.70;108778;1232;97839;-90
2023/07/29 06:28:03;;;;;;;5.00;3.20;;;;;;;21.37;73.23;98594.89;108808;1237;96618;-90
2023/07/29 06:30:31;;;;;;;6.40;3.80;;;;;;;21.39;73.01;98594.63;108642;1231;97579;-89
2023/07/29 06:32:58;;;;;;;5.80;3.30;;;;;;;21.41;73.00;98598.13;108608;1239;98026;-88
2023/07/29 06:35:25;;;;;;;5.50;3.40;;;;;;;21.44;73.24;98597.74;108772;1237;97363;-89
2023/07/29 06:37:54;;;;;;;7.50;3.70;;;;;;;21.49;73.02;98601.70;108878;1237;97018;-89
2023/07/29 06:40:24;;;;;;;8.10;3.60;;;;;;;21.52;72.94;98602.86;108962;1235;97481;-91
2023/07/29 06:42:51;;;;;;;5.70;3.20;;;;;;;21.59;72.92;98608.05;109022;1237;109757;-89
2023/07/29 06:45:22;;;;;;;8.00;3.80;;;;;;;21.63;72.60;98606.23;109169;1236;96700;-90
2023/07/29 06:47:49;;;;;;;9.50;3.80;;;;;;;21.65;72.39;98605.92;108847;1239;106093;-90
2023/07/29 06:50:16;;;;;;;7.80;3.60;;;;;;;21.67;72.42;98602.89;109054;1237;96574;-90
2023/07/29 06:52:43;;;;;;;5.70;3.30;;;;;;;21.72;72.43;98602.98;108906;1232;96581;-90
2023/07/29 06:55:10;;;;;;;7.10;3.40;;;;;;;21.81;72.79;98604.88;109019;1237;96659;-90
2023/07/29 06:57:37;;;;;;;6.60;3.70;;;;;;;21.89;72.60;98599.79;109100;1237;96646;-90
2023/07/29 07:00:06;;;;;;;11.10;3.70;;;;;;;21.91;72.50;98598.80;108880;1237;96499;-90
2023/07/29 07:02:33;;;;;;;6.30;3.60;;;;;;;21.95;72.44;98601.45;108951;1231;96697;-90
2023/07/29 07:05:00;;;;;;;6.20;3.50;;;;;;;22.01;72.81;98603.78;108944;1231;96728;-90
2023/07/29 07:07:27;;;;;;;5.40;3.20;;;;;;;22.04;72.09;98607.72;108943;1245;96532;-91
2023/07/29 07:09:54;;;;;;;7.70;3.70;;;;;;;22.04;72.04;98604.84;109062;1244;96503;-91
2023/07/29 07:12:22;;;;;;;7.20;3.90;;;;;;;22.04;70.68;98604.50;109152;1234;96614;-90
2023/07/29 07:14:50;;;;;;;5.70;3.70;;;;;;;21.97;71.03;98603.02;109070;1231;96628;-90
2023/07/29 07:17:18;;;;;;;8.20;3.60;;;;;;;21.95;71.20;98605.08;108866;1238;96566;-90
2023/07/29 07:19:46;;;;;;;7.00;4.30;;;;;;;21.96;71.26;98604.63;109243;1231;97078;-91
2023/07/29 07:22:13;;;;;;;8.20;4.20;;;;;;;21.97;71.26;98603.14;109258;1238;96624;-91
2023/07/29 07:24:40;;;;;;;7.30;3.60;;;;;;;22.02;71.40;98602.23;109218;1232;96666;-90
2023/07/29 07:27:08;;;;;;;6.60;3.60;;;;;;;22.08;71.44;98600.63;109094;1237;96605;-90
2023/07/29 07:29:35;;;;;;;8.40;4.00;;;;;;;22.14;71.39;98602.30;109180;1232;95323;-91
2023/07/29 07:32:05;;;;;;;7.40;3.90;;;;;;;22.21;71.58;98603.79;109259;1241;97190;-90
2023/07/29 07:34:33;;;;;;;5.50;3.70;;;;;;;22.26;71.20;98603.79;109415;1235;96597;-89
2023/07/29 07:37:01;;;;;;;7.80;3.90;;;;;;;22.30;71.33;98601.89;109079;1238;107529;-91
2023/07/29 07:39:28;;;;;;;9.20;3.60;;;;;;;22.36;70.91;98602.27;109450;1232;96554;-89
2023/07/29 07:41:55;;;;;;;8.00;4.00;;;;;;;22.44;71.13;98601.33;109849;1237;96579;-90
2023/07/29 07:44:22;;;;;;;8.50;3.50;;;;;;;22.55;71.10;98601.39;109886;1231;96509;-91
2023/07/29 07:46:49;;;;;;;9.40;4.50;;;;;;;22.65;70.97;98598.91;109447;1231;96467;-92
2023/07/29 07:49:17;;;;;;;5.50;3.40;;;;;;;22.69;71.04;98600.50;109095;1237;96637;-90
2023/07/29 07:51:44;;;;;;;6.10;4.00;;;;;;;22.72;71.21;98602.80;109274;1237;96604;-92
2023/07/29 07:54:11;;;;;;;7.00;4.00;;;;;;;22.78;71.09;98605.46;108980;1237;96608;-89
2023/07/29 07:56:38;;;;;;;6.70;3.70;;;;;;;22.84;70.92;98599.08;108926;1246;97530;-90
2023/07/29 07:59:05;;;;;;;8.00;4.00;;;;;;;22.88;70.75;98602.89;108718;1238;96592;-90
2023/07/29 08:01:37;;;;;;;11.20;3.70;;;;;;;22.91;70.82;98602.66;109001;1237;96722;-91
2023/07/29 08:04:04;;;;;;;7.10;3.70;;;;;;;22.96;70.57;98602.98;108613;1231;96644;-91
2023/07/29 08:06:33;;;;;;;7.60;3.80;;;;;;;22.96;70.86;98597.63;108929;1232;97066;-91
2023/07/29 08:09:01;;;;;;;6.30;3.80;;;;;;;22.97;70.82;98599.44;109053;1231;108269;-91
2023/07/29 08:11:27;;;;;;;8.20;3.80;;;;;;;22.96;70.23;98600.59;109072;1237;96655;-91
2023/07/29 08:13:55;;;;;;;7.90;3.90;;;;;;;22.93;70.26;98603.17;109222;1235;96568;-90
2023/07/29 08:16:24;;;;;;;7.40;3.70;;;;;;;22.94;70.21;98600.71;108732;1239;96594;-91
2023/07/29 08:18:51;;;;;;;9.00;3.80;;;;;;;22.96;70.34;98595.67;109048;1237;96484;-90
2023/07/29 08:21:19;;;;;;;7.30;3.50;;;;;;;23.00;70.39;98590.68;109439;1237;109796;-90
2023/07/29 08:23:46;;;;;;;7.10;3.30;;;;;;;23.01;69.84;98593.40;109496;1237;97087;-91
2023/07/29 08:26:16;;;;;;;7.00;3.50;;;;;;;22.98;70.20;98591.09;109303;1241;107539;-90
2023/07/29 08:28:44;;;;;;;7.70;3.90;;;;;;;23.00;70.05;98593.02;108730;1246;96686;-91
2023/07/29 08:31:13;;;;;;;8.20;3.90;;;;;;;23.05;70.19;98594.65;108849;1231;96535;-90
2023/07/29 08:33:40;;;;;;;5.80;3.70;;;;;;;23.13;70.11;98593.46;108797;1237;107732;-90
2023/07/29 08:36:07;;;;;;;10.20;4.00;;;;;;;23.19;70.01;98592.44;108907;1238;97368;-90
2023/07/29 08:38:34;;;;;;;7.70;4.10;;;;;;;23.28;70.05;98594.98;108929;1245;97721;-90
2023/07/29 08:41:10;;;;;;;6.50;3.60;;;;;;;23.36;69.69;98595.21;108698;1246;97826;-91
2023/07/29 08:43:44;;;;;;;9.00;4.40;;;;;;;23.38;69.64;98595.92;108979;1237;96471;-90
2023/07/29 08:46:29;;;;;;;6.80;3.80;;;;;;;23.41;69.74;98598.23;109038;1236;109426;-89
2023/07/29 08:48:57;;;;;;;7.80;3.60;;;;;;;23.42;69.46;98598.52;108852;1242;96694;-89
2023/07/29 08:51:25;;;;;;;9.60;4.10;;;;;;;23.38;69.39;98599.21;108735;1246;96604;-90
2023/07/29 08:53:53;;;;;;;7.90;3.50;;;;;;;23.37;69.37;98597.98;108830;1237;97526;-90
2023/07/29 08:56:20;;;;;;;6.10;3.60;;;;;;;23.37;69.03;98598.84;108855;1238;96630;-89
2023/07/29 08:58:47;;;;;;;8.20;3.50;;;;;;;23.35;69.15;98595.42;108667;1236;96574;-90
2023/07/29 09:01:15;;;;;;;5.60;3.40;;;;;;;23.34;69.01;98595.16;108802;1245;96468;-89
2023/07/29 09:03:42;;;;;;;11.20;3.80;;;;;;;23.34;69.03;98594.33;108700;1236;107514;-89
2023/07/29 09:06:11;;;;;;;7.40;3.60;;;;;;;23.39;69.16;98592.38;108408;1237;574354;-89
2023/07/29 09:08:39;;;;;;;6.30;3.40;;;;;;;23.43;68.89;98590.04;108874;1235;96472;-89
2023/07/29 09:11:06;;;;;;;6.60;3.70;;;;;;;23.48;69.13;98586.08;109203;1237;110185;-89
2023/07/29 09:13:33;;;;;;;7.40;3.70;;;;;;;23.57;69.22;98587.50;109221;1237;97409;-90
2023/07/29 09:16:01;;;;;;;6.40;3.40;;;;;;;23.64;69.11;98586.50;108716;1238;96640;-91
2023/07/29 09:18:28;;;;;;;7.50;3.70;;;;;;;23.70;68.71;98590.98;109010;1238;96678;-91
2023/07/29 09:21:00;;;;;;;5.70;3.40;;;;;;;23.72;68.60;98588.59;108764;1238;96877;-89
2023/07/29 09:23:28;;;;;;;5.50;3.30;;;;;;;23.74;68.76;98588.80;108848;1232;110043;-89
2023/07/29 09:26:03;;;;;;;6.50;3.20;;;;;;;23.77;68.67;98589.64;108690;1246;97680;-89
2023/07/29 09:28:41;;;;;;;12.00;5.30;;;;;;;23.78;68.58;98585.72;108986;1237;107641;-91
2023/07/29 09:31:47;;;;;;;14.80;6.10;;;;;;;23.83;68.71;98581.66;108955;1232;96568;-89
2023/07/29 09:34:15;;;;;;;10.70;4.40;;;;;;;23.95;68.52;98582.68;109038;1235;96563;-90
2023/07/29 09:36:43;;;;;;;7.50;3.80;;;;;;;24.02;68.75;98583.75;109023;1236;109524;-91
2023/07/29 09:39:13;;;;;;;7.90;4.10;;;;;;;24.12;68.53;98582.02;108759;1232;96924;-91
2023/07/29 09:41:41;;;;;;;8.10;4.00;;;;;;;24.21;68.56;98578.34;109277;1237;106964;-91
2023/07/29 09:44:11;;;;;;;5.30;3.30;;;;;;;24.31;68.46;98581.06;108971;1240;96970;-91
2023/07/29 09:46:45;;;;;;;5.50;3.20;;;;;;;24.38;68.19;98576.45;109415;1240;96678;-91
2023/07/29 09:49:13;;;;;;;7.10;3.80;;;;;;;24.44;68.30;98576.55;109911;1237;109869;-90
2023/07/29 09:51:40;;;;;;;5.10;3.50;;;;;;;24.51;68.14;98579.87;110133;1231;96700;-91
2023/07/29 09:54:09;;;;;;;4.30;2.90;;;;;;;24.58;68.17;98574.84;110142;1236;96636;-90
2023/07/29 09:56:47;;;;;;;5.40;3.40;;;;;;;24.59;68.12;98576.33;109761;1237;96663;-91
2023/07/29 09:59:43;;;;;;;6.30;3.40;;;;;;;24.59;67.98;98574.54;109195;1236;96764;-90
2023/07/29 10:02:51;;;;;;;10.30;3.20;;;;;;;24.57;67.83;98567.47;109555;1237;109336;-91
2023/07/29 10:05:23;;;;;;;6.00;3.10;;;;;;;24.57;67.59;98569.40;109576;1232;97277;-91
2023/07/29 10:07:51;;;;;;;5.30;3.10;;;;;;;24.61;67.72;98570.02;109803;1235;107568;-91
2023/07/29 10:10:22;;;;;;;5.10;3.30;;;;;;;24.67;67.66;98565.60;109686;1236;96586;-91
2023/07/29 10:12:53;;;;;;;5.10;3.00;;;;;;;24.77;67.71;98567.17;109566;1236;96566;-90
2023/07/29 10:15:21;;;;;;;7.80;3.50;;;;;;;24.84;67.34;98567.31;109353;1239;111015;-91
2023/07/29 10:17:51;;;;;;;5.60;3.30;;;;;;;24.87;67.27;98562.52;109380;1237;96468;-91
2023/07/29 10:20:18;;;;;;;5.30;3.20;;;;;;;24.93;67.32;98562.68;109372;1236;107511;-90
2023/07/29 10:22:51;;;;;;;5.30;2.70;;;;;;;25.00;66.53;98563.83;109174;1238;96537;-89
2023/07/29 10:25:27;;;;;;;8.00;2.80;;;;;;;24.97;66.84;98562.30;109245;1235;96556;-90
2023/07/29 10:31:15;;;;;;;6.80;3.40;;;;;;;24.92;67.00;98564.45;109348;1234;97053;-90
2023/07/29 10:33:46;;;;;;;7.10;3.60;;;;;;;24.91;66.92;98566.30;109514;1234;107058;-92
2023/07/29 10:36:14;;;;;;;5.30;3.30;;;;;;;24.89;66.95;98562.42;109399;1238;96729;-90
2023/07/29 10:38:41;;;;;;;6.70;3.40;;;;;;;24.89;66.93;98560.86;108785;1232;96592;-91
2023/07/29 10:41:08;;;;;;;4.80;3.30;;;;;;;24.92;66.97;98555.29;109036;1232;96574;-91
2023/07/29 10:43:38;;;;;;;6.00;3.40;;;;;;;24.92;66.94;98550.73;109091;1232;96560;-91
2023/07/29 10:46:24;;;;;;;7.00;3.50;;;;;;;24.93;66.81;98547.50;109055;1244;107706;-90
2023/07/29 10:48:58;;;;;;;5.80;3.30;;;;;;;24.92;66.71;98545.45;108767;1237;96586;-91
2023/07/29 10:51:25;;;;;;;7.80;3.70;;;;;;;24.91;66.66;98550.27;109047;1237;97481;-92
2023/07/29 10:53:57;;;;;;;8.10;3.40;;;;;;;24.90;66.66;98544.50;109206;1235;96589;-90
2023/07/29 10:56:31;;;;;;;5.70;3.30;;;;;;;24.92;66.56;98541.86;109219;1237;96585;-91
2023/07/29 10:59:37;;;;;;;8.20;3.60;;;;;;;25.03;66.66;98542.47;108922;1239;110664;-92
2023/07/29 11:05:22;;;;;;;7.00;3.50;;;;;;;25.19;66.30;98536.38;108878;1232;96509;-92
2023/07/29 11:07:49;;;;;;;7.50;3.60;;;;;;;25.19;66.30;98533.83;108909;1238;109419;-90
2023/07/29 11:10:17;;;;;;;5.80;3.40;;;;;;;25.21;66.19;98533.77;108846;1235;96569;-90
2023/07/29 11:12:54;;;;;;;7.40;3.80;;;;;;;25.22;66.15;98529.29;108747;1232;97303;-90
2023/07/29 11:15:25;;;;;;;8.20;3.80;;;;;;;25.23;66.11;98530.70;108869;1242;96566;-90
2023/07/29 11:17:58;;;;;;;8.00;3.40;;;;;;;25.30;66.41;98530.47;108959;1237;96635;-92
2023/07/29 11:20:34;;;;;;;9.80;3.70;;;;;;;25.36;65.90;98526.82;108986;1246;109787;-93
2023/07/29 11:23:04;;;;;;;5.70;3.50;;;;;;;25.39;65.98;98524.09;109245;1237;97723;-93
2023/07/29 11:25:33;;;;;;;7.10;3.30;;;;;;;25.43;65.75;98527.59;108779;1232;107617;-90
2023/07/29 11:28:00;;;;;;;7.20;3.50;;;;;;;25.45;65.67;98528.71;108802;1232;96564;-91
2023/07/29 11:30:33;;;;;;;8.20;3.40;;;;;;;25.49;65.72;98529.48;108984;1237;96605;-90
2023/07/29 11:33:00;;;;;;;6.50;3.30;;;;;;;25.51;65.91;98531.10;108690;1241;96573;-89
2023/07/29 11:35:27;;;;;;;5.70;3.40;;;;;;;25.56;65.83;98531.26;108942;1237;97106;-90
2023/07/29 11:37:57;;;;;;;7.00;3.60;;;;;;;25.62;65.74;98528.65;108468;1241;96637;-90
2023/07/29 11:40:25;;;;;;;7.10;3.50;;;;;;;25.68;65.67;98527.64;109124;1244;96543;-91
2023/07/29 11:42:53;;;;;;;7.20;3.30;;;;;;;25.75;65.63;98522.13;108724;1240;96470;-92
2023/07/29 11:45:22;;;;;;;4.70;3.10;;;;;;;25.80;65.63;98522.25;108653;1241;110193;-91
2023/07/29 11:48:33;;;;;;;6.50;3.00;;;;;;;25.82;65.42;98525.91;108525;1241;96552;-90
2023/07/29 11:51:03;;;;;;;6.30;3.20;;;;;;;25.84;65.34;98520.61;108583;1238;107485;-92
2023/07/29 11:53:31;;;;;;;8.90;3.40;;;;;;;25.83;65.05;98520.70;108653;1252;97728;-92
2023/07/29 11:56:23;;;;;;;17.90;5.70;;;;;;;25.82;65.04;98515.77;109570;1240;96585;-92
2023/07/29 12:17:08;;;;;;;4.80;3.00;;;;;;;25.86;64.33;98505.56;112277;1228;94604;31
2023/07/29 12:19:56;;;;;;;6.30;3.20;;;;;;;25.87;64.50;98507.77;109771;1237;107370;-91
2023/07/29 12:23:02;;;;;;;6.10;3.10;;;;;;;25.93;64.40;98507.86;109304;1237;97793;-92
2023/07/29 12:25:35;;;;;;;6.00;3.00;;;;;;;26.03;64.59;98502.52;109497;1237;96557;-91
2023/07/29 12:32:04;;;;;;;9.30;4.10;;;;;;;26.14;64.05;98498.61;109588;1237;96584;-92
2023/07/29 12:34:58;;;;;;;5.90;2.80;;;;;;;26.18;63.93;98495.39;110960;1234;107305;-90
2023/07/29 12:38:12;;;;;;;6.10;3.10;;;;;;;26.14;63.85;98496.77;111082;1230;96633;-92
2023/07/29 12:40:51;;;;;;;10.00;3.80;;;;;;;26.05;63.91;98504.09;109585;1229;96596;-91
